Time;durP1;ratioP1;P1;durP2;ratioP2;P2;SDS_P1;SDS_P2;PMS_P1;PMS_P2;Temp;Humidity;BMP_temperature;BMP_pressure;BME280_temperature;BME280_humidity;BME280_pressure;Samples;Min_cycle;Max_cycle;Signal;HPM_P1;HPM_P2
2022/09/17 00:00:55;;;;;;;3.60;1.20;;;13.20;99.90;;;;;;4957727;28;20205;-89
2022/09/17 00:03:22;;;;;;;0.10;0.10;;;13.10;99.90;;;;;;4956925;28;20271;-89
2022/09/17 00:05:48;;;;;;;1.30;1.13;;;13.50;99.90;;;;;;4957972;28;20200;-89
2022/09/17 00:08:14;;;;;;;0.27;0.27;;;13.30;99.90;;;;;;4957187;28;20248;-89
2022/09/17 00:10:42;;;;;;;0.30;0.30;;;13.20;99.90;;;;;;4957604;28;21102;-90
2022/09/17 00:13:09;;;;;;;3.13;0.57;;;13.00;99.90;;;;;;4973126;28;20225;-89
2022/09/17 00:15:42;;;;;;;6.30;0.63;;;13.00;99.90;;;;;;4974038;28;20189;-89
2022/09/17 00:18:07;;;;;;;0.33;0.30;;;12.90;99.90;;;;;;4974009;28;20656;-89
2022/09/17 00:20:38;;;;;;;0.17;0.17;;;13.00;99.90;;;;;;4973310;28;20204;-90
2022/09/17 00:23:04;;;;;;;30.17;1.27;;;12.80;99.90;;;;;;4972861;28;20209;-89
2022/09/17 00:25:30;;;;;;;0.70;0.43;;;12.00;99.90;;;;;;4956948;28;20267;-89
2022/09/17 00:27:56;;;;;;;0.33;0.33;;;11.90;99.90;;;;;;4956460;28;20221;-88
2022/09/17 00:30:21;;;;;;;1.50;0.20;;;11.90;99.90;;;;;;4956500;28;20243;-89
2022/09/17 00:32:47;;;;;;;0.00;0.00;;;11.80;99.90;;;;;;4954400;28;20196;-89
2022/09/17 00:35:13;;;;;;;0.10;0.10;;;11.80;99.90;;;;;;4969665;28;20220;-89
2022/09/17 00:37:39;;;;;;;3.47;0.60;;;11.80;99.90;;;;;;4956724;28;20220;-88
2022/09/17 00:40:05;;;;;;;2.20;2.00;;;11.80;99.90;;;;;;4956247;28;20223;-89
2022/09/17 00:42:31;;;;;;;0.10;0.10;;;11.90;99.90;;;;;;4956437;28;20676;-89
2022/09/17 00:44:57;;;;;;;2.10;0.33;;;12.00;99.90;;;;;;4957110;28;20193;-89
2022/09/17 00:47:29;;;;;;;0.70;0.70;;;12.20;99.90;;;;;;4956408;28;20272;-90
2022/09/17 00:50:02;;;;;;;2.03;0.77;;;12.40;99.90;;;;;;4972704;28;20220;-90
2022/09/17 00:52:33;;;;;;;1.23;1.00;;;12.40;99.90;;;;;;4972464;28;20304;-89
2022/09/17 00:55:08;;;;;;;0.40;0.40;;;12.60;99.90;;;;;;4972507;28;20240;-90
2022/09/17 00:57:35;;;;;;;0.53;0.53;;;12.50;99.90;;;;;;4957447;28;20187;-91
2022/09/17 01:00:03;;;;;;;0.10;0.10;;;12.30;99.90;;;;;;4953982;28;20351;-90
2022/09/17 01:02:28;;;;;;;0.90;0.90;;;12.10;99.90;;;;;;4955182;28;20217;-90
2022/09/17 01:04:55;;;;;;;0.13;0.13;;;11.90;99.90;;;;;;4955800;28;20221;-90
2022/09/17 01:07:36;;;;;;;1.60;0.73;;;11.80;99.90;;;;;;4972005;28;20263;-89
2022/09/17 01:10:26;;;;;;;2.47;0.50;;;11.90;99.90;;;;;;4971809;28;20239;-89
2022/09/17 01:13:10;;;;;;;3.10;1.10;;;12.00;99.90;;;;;;4987408;28;20231;-90
2022/09/17 01:15:42;;;;;;;0.10;0.10;;;12.00;99.90;;;;;;4988103;28;20734;-89
2022/09/17 01:18:27;;;;;;;0.40;0.40;;;12.10;99.90;;;;;;4988483;28;20185;-90
2022/09/17 01:21:14;;;;;;;0.20;0.20;;;12.20;99.90;;;;;;4972290;28;20216;-90
2022/09/17 01:24:00;;;;;;;4.03;1.00;;;12.40;99.90;;;;;;4971643;28;20692;-90
2022/09/17 01:26:46;;;;;;;7.93;0.93;;;12.40;99.90;;;;;;4971744;28;20271;-89
2022/09/17 01:29:22;;;;;;;0.10;0.10;;;12.40;99.90;;;;;;4987703;28;20243;-90
2022/09/17 01:32:06;;;;;;;0.20;0.20;;;12.60;99.90;;;;;;4970933;28;20275;-90
2022/09/17 01:34:44;;;;;;;0.33;0.20;;;12.60;99.90;;;;;;4987398;28;20220;-88
2022/09/17 01:37:10;;;;;;;1.37;0.30;;;12.60;99.90;;;;;;4971617;28;20224;-89
2022/09/17 01:39:59;;;;;;;0.47;0.47;;;12.50;99.90;;;;;;4972113;28;20268;-90
2022/09/17 01:42:54;;;;;;;1.70;0.20;;;12.50;99.90;;;;;;4971032;28;20185;-91
2022/09/17 01:45:37;;;;;;;1.80;0.77;;;12.50;99.90;;;;;;4972095;28;20177;-89
2022/09/17 01:48:38;;;;;;;0.33;0.20;;;12.40;99.90;;;;;;4971648;28;20249;-89
2022/09/17 01:51:09;;;;;;;0.63;0.50;;;12.10;99.90;;;;;;4968496;28;20220;-88
2022/09/17 01:54:15;;;;;;;0.93;0.73;;;12.00;99.90;;;;;;4971339;28;20728;-88
2022/09/17 01:57:07;;;;;;;0.13;0.13;;;12.00;99.90;;;;;;4970554;28;20564;-89
2022/09/17 01:59:50;;;;;;;0.50;0.50;;;12.30;99.90;;;;;;4971428;28;20213;-90
2022/09/17 02:02:29;;;;;;;0.50;0.50;;;12.40;99.90;;;;;;4971196;28;20224;-91
2022/09/17 02:05:03;;;;;;;1.83;1.23;;;12.50;99.90;;;;;;4971201;28;20226;-90
2022/09/17 02:07:31;;;;;;;1.53;0.60;;;12.50;99.90;;;;;;4970975;28;20246;-89
2022/09/17 02:10:06;;;;;;;1.70;0.57;;;12.60;99.90;;;;;;4987335;28;20591;-89
2022/09/17 02:12:39;;;;;;;2.07;0.27;;;12.50;99.90;;;;;;4973626;28;20192;-90
2022/09/17 02:15:11;;;;;;;0.30;0.20;;;12.50;99.90;;;;;;4976165;28;20177;-90
2022/09/17 02:17:44;;;;;;;3.50;0.57;;;12.60;99.90;;;;;;4975153;28;20331;-90
2022/09/17 02:20:11;;;;;;;0.80;0.63;;;12.50;99.90;;;;;;4975629;28;20689;-89
2022/09/17 02:22:44;;;;;;;0.47;0.40;;;12.50;99.90;;;;;;4958907;28;20684;-89
2022/09/17 02:25:16;;;;;;;0.57;0.20;;;12.40;99.90;;;;;;4974602;28;20727;-89
2022/09/17 02:27:57;;;;;;;0.93;0.93;;;12.40;99.90;;;;;;4975342;28;20221;-90
2022/09/17 02:30:23;;;;;;;6.43;1.00;;;12.40;99.90;;;;;;4976045;28;20192;-88
2022/09/17 02:32:48;;;;;;;0.27;0.27;;;12.40;99.90;;;;;;4959053;28;20188;-89
2022/09/17 02:35:14;;;;;;;2.90;1.20;;;12.30;99.90;;;;;;4958367;28;20220;-89
2022/09/17 02:37:41;;;;;;;6.00;1.03;;;12.30;99.90;;;;;;4959046;28;20216;-89
2022/09/17 02:40:09;;;;;;;1.23;0.73;;;12.30;99.90;;;;;;4976005;28;20216;-92
2022/09/17 02:42:59;;;;;;;1.30;0.60;;;12.40;99.90;;;;;;4958915;28;20223;-90
2022/09/17 02:45:46;;;;;;;0.33;0.33;;;12.50;99.90;;;;;;4974579;28;20264;-90
2022/09/17 02:48:55;;;;;;;0.20;0.20;;;12.50;99.90;;;;;;4974827;28;20227;-89
2022/09/17 02:51:30;;;;;;;0.20;0.20;;;12.30;99.90;;;;;;4974392;28;20224;-90
2022/09/17 02:54:02;;;;;;;0.13;0.13;;;12.20;99.90;;;;;;4975514;28;20197;-90
2022/09/17 02:57:05;;;;;;;0.60;0.60;;;12.30;99.90;;;;;;4974415;28;20290;-89
2022/09/17 02:59:41;;;;;;;0.17;0.17;;;12.20;99.90;;;;;;4974318;28;20224;-90
2022/09/17 03:02:21;;;;;;;0.00;0.00;;;12.30;99.90;;;;;;4990243;28;20224;-89
2022/09/17 03:04:48;;;;;;;0.63;0.10;;;12.40;99.90;;;;;;4974340;28;20676;-89
2022/09/17 03:07:18;;;;;;;0.47;0.47;;;12.60;99.90;;;;;;4974191;28;20224;-89
2022/09/17 03:09:44;;;;;;;1.03;0.23;;;12.70;99.90;;;;;;4973597;28;20812;-91
2022/09/17 03:12:10;;;;;;;0.20;0.20;;;12.70;99.90;;;;;;4958276;28;20201;-89
2022/09/17 03:14:36;;;;;;;0.30;0.30;;;12.30;99.90;;;;;;4957288;28;20224;-89
2022/09/17 03:17:03;;;;;;;0.10;0.10;;;11.90;99.90;;;;;;4958033;28;20323;-88
2022/09/17 03:19:28;;;;;;;0.80;0.80;;;11.80;99.90;;;;;;4973916;28;20297;-89
2022/09/17 03:21:54;;;;;;;17.50;0.60;;;11.80;99.90;;;;;;4973763;28;20232;-90
2022/09/17 03:24:20;;;;;;;0.00;0.00;;;11.80;99.90;;;;;;4957346;28;20223;-87
2022/09/17 03:26:49;;;;;;;0.60;0.60;;;11.90;99.90;;;;;;4974615;28;20219;-89
2022/09/17 03:29:15;;;;;;;1.70;0.77;;;12.00;99.90;;;;;;4958303;28;20271;-89
2022/09/17 03:31:41;;;;;;;0.30;0.30;;;12.00;99.90;;;;;;4957840;28;20456;-89
2022/09/17 03:34:07;;;;;;;0.17;0.17;;;12.00;99.90;;;;;;4957760;28;20227;-89
2022/09/17 03:36:33;;;;;;;0.10;0.10;;;12.00;99.90;;;;;;4958184;28;20205;-89
2022/09/17 03:39:00;;;;;;;2.20;1.43;;;12.10;99.90;;;;;;4958044;28;20197;-89
2022/09/17 03:41:26;;;;;;;0.30;0.30;;;11.80;99.90;;;;;;4957360;28;20221;-90
2022/09/17 03:43:52;;;;;;;1.80;0.67;;;11.40;99.90;;;;;;4973738;28;20221;-89
2022/09/17 03:46:18;;;;;;;2.17;0.20;;;11.30;99.90;;;;;;4989673;28;20568;-89
2022/09/17 03:48:44;;;;;;;2.10;0.97;;;11.40;99.90;;;;;;4957804;28;20677;-89
2022/09/17 03:51:11;;;;;;;0.77;0.43;;;11.50;99.90;;;;;;4958540;28;20185;-88
2022/09/17 03:53:37;;;;;;;0.77;0.77;;;11.40;99.90;;;;;;4957938;28;20224;-89
2022/09/17 03:56:04;;;;;;;0.30;0.20;;;11.40;99.90;;;;;;4957796;28;20243;-90
2022/09/17 03:58:31;;;;;;;7.50;1.60;;;11.50;99.90;;;;;;4956816;28;20275;-89
2022/09/17 04:00:56;;;;;;;0.10;0.10;;;11.20;99.90;;;;;;4955814;28;20713;-89
2022/09/17 04:03:28;;;;;;;5.03;0.40;;;11.00;99.90;;;;;;4973283;28;20200;-88
2022/09/17 04:05:54;;;;;;;0.10;0.10;;;11.00;99.90;;;;;;4957624;28;20197;-89
2022/09/17 04:08:20;;;;;;;2.80;0.77;;;10.90;99.90;;;;;;4972600;28;20247;-89
2022/09/17 04:10:47;;;;;;;0.10;0.10;;;10.90;99.90;;;;;;4989391;28;20432;-89
2022/09/17 04:13:14;;;;;;;0.10;0.10;;;11.10;99.90;;;;;;4957297;28;20280;-90
2022/09/17 04:15:41;;;;;;;0.00;0.00;;;11.20;99.90;;;;;;4972443;28;20275;-90
2022/09/17 04:18:07;;;;;;;4.43;0.60;;;11.30;99.90;;;;;;4957676;28;20204;-89
2022/09/17 04:20:33;;;;;;;5.10;0.60;;;11.50;99.90;;;;;;4957032;28;20212;-90
2022/09/17 04:22:59;;;;;;;1.13;0.40;;;11.50;99.90;;;;;;4972970;28;20227;-89
2022/09/17 04:25:24;;;;;;;1.03;1.00;;;11.50;99.90;;;;;;4956982;28;20678;-90
2022/09/17 04:27:50;;;;;;;0.10;0.10;;;11.70;99.90;;;;;;4956826;28;20711;-90
2022/09/17 04:30:16;;;;;;;0.00;0.00;;;11.90;99.90;;;;;;4956713;28;20300;-90
2022/09/17 04:32:44;;;;;;;3.90;0.40;;;12.10;99.90;;;;;;4956632;28;20216;-90
2022/09/17 04:35:10;;;;;;;0.10;0.10;;;12.00;99.90;;;;;;4971749;28;20216;-90
2022/09/17 04:37:36;;;;;;;0.50;0.40;;;12.10;99.90;;;;;;4956169;28;20228;-90
2022/09/17 04:40:02;;;;;;;0.37;0.37;;;12.10;99.90;;;;;;4956348;28;20217;-89
2022/09/17 04:42:28;;;;;;;0.87;0.30;;;12.20;99.90;;;;;;4956571;28;20787;-90
2022/09/17 04:44:54;;;;;;;0.63;0.40;;;12.00;99.90;;;;;;4956706;28;20189;-89
2022/09/17 04:47:19;;;;;;;1.40;0.73;;;11.80;99.90;;;;;;4956195;28;20225;-89
2022/09/17 04:49:45;;;;;;;0.00;0.00;;;11.70;99.90;;;;;;4956456;28;20661;-89
2022/09/17 04:52:11;;;;;;;9.83;0.73;;;11.80;99.90;;;;;;4956403;28;20259;-89
2022/09/17 04:54:37;;;;;;;0.10;0.10;;;11.80;99.90;;;;;;4956233;28;20196;-89
2022/09/17 04:57:03;;;;;;;3.97;0.70;;;11.80;99.90;;;;;;4972789;28;20197;-89
2022/09/17 04:59:28;;;;;;;0.30;0.30;;;11.70;99.90;;;;;;4956142;28;20224;-90
2022/09/17 05:01:54;;;;;;;4.10;0.63;;;11.70;99.90;;;;;;4972170;28;20225;-89
2022/09/17 05:04:20;;;;;;;1.93;0.27;;;11.70;99.90;;;;;;4972427;28;20220;-91
2022/09/17 05:06:46;;;;;;;3.50;1.23;;;11.70;99.90;;;;;;4955978;28;21298;-91
2022/09/17 05:09:11;;;;;;;0.73;0.20;;;12.00;99.90;;;;;;4956172;28;20244;-89
2022/09/17 05:11:37;;;;;;;0.10;0.10;;;12.10;99.90;;;;;;4971183;28;20220;-90
2022/09/17 05:14:03;;;;;;;4.93;1.20;;;12.10;99.90;;;;;;4955778;28;20227;-89
2022/09/17 05:16:29;;;;;;;0.50;0.50;;;12.10;99.90;;;;;;4971768;28;20224;-89
2022/09/17 05:18:56;;;;;;;0.33;0.33;;;12.20;99.90;;;;;;4955717;28;20231;-89
2022/09/17 05:21:22;;;;;;;0.47;0.33;;;12.10;99.90;;;;;;4956154;28;20193;-89
2022/09/17 05:23:48;;;;;;;0.40;0.30;;;11.90;99.90;;;;;;4971864;28;20188;-90
2022/09/17 05:26:14;;;;;;;1.67;0.40;;;11.90;99.90;;;;;;4955434;28;20287;-89
2022/09/17 05:28:40;;;;;;;0.30;0.30;;;11.90;99.90;;;;;;4971491;28;20236;-89
2022/09/17 05:31:06;;;;;;;1.23;0.60;;;11.10;99.90;;;;;;4971132;28;20216;-88
2022/09/17 05:33:32;;;;;;;7.13;1.03;;;10.90;99.90;;;;;;4955186;28;20195;-89
2022/09/17 05:35:58;;;;;;;3.70;0.30;;;11.00;99.90;;;;;;4955198;28;20181;-89
2022/09/17 05:38:24;;;;;;;1.13;0.20;;;11.00;99.90;;;;;;4939390;28;20205;-89
2022/09/17 05:40:50;;;;;;;3.47;0.77;;;11.10;99.90;;;;;;4954915;28;20215;-89
2022/09/17 05:43:16;;;;;;;0.27;0.27;;;11.40;99.90;;;;;;4971456;28;20216;-89
2022/09/17 05:45:42;;;;;;;0.57;0.20;;;11.50;99.90;;;;;;4970329;28;20204;-90
2022/09/17 05:48:13;;;;;;;0.13;0.13;;;11.60;99.90;;;;;;4955904;28;20262;-89
2022/09/17 05:50:40;;;;;;;0.67;0.47;;;11.50;99.90;;;;;;4971391;28;20208;-89
2022/09/17 05:53:09;;;;;;;0.83;0.50;;;11.60;99.90;;;;;;4971784;28;20217;-89
2022/09/17 05:55:35;;;;;;;0.17;0.17;;;11.70;99.90;;;;;;4970567;28;20316;-88
2022/09/17 05:58:12;;;;;;;0.67;0.30;;;11.60;99.90;;;;;;4955210;28;20204;-89
2022/09/17 06:00:40;;;;;;;1.23;1.13;;;11.50;99.90;;;;;;4971237;28;20539;-89
2022/09/17 06:03:06;;;;;;;0.27;0.27;;;11.50;99.90;;;;;;4971679;28;20185;-89
2022/09/17 06:05:32;;;;;;;0.60;0.60;;;11.50;99.90;;;;;;4970720;28;20689;-88
2022/09/17 06:07:58;;;;;;;0.33;0.20;;;11.60;99.90;;;;;;4970861;28;20232;-90
2022/09/17 06:10:25;;;;;;;0.30;0.20;;;11.70;99.90;;;;;;4954907;28;20287;-89
2022/09/17 06:12:58;;;;;;;0.10;0.10;;;11.80;99.90;;;;;;4939388;28;20228;-90
2022/09/17 06:15:26;;;;;;;2.53;0.33;;;11.80;99.90;;;;;;4971191;28;21075;-89
2022/09/17 06:17:51;;;;;;;0.50;0.30;;;11.90;99.90;;;;;;4955347;28;20224;-88
2022/09/17 06:20:18;;;;;;;1.40;0.30;;;11.90;99.90;;;;;;4955240;28;20247;-88
2022/09/17 06:22:44;;;;;;;0.10;0.10;;;11.90;99.90;;;;;;4987304;28;20212;-88
2022/09/17 06:25:11;;;;;;;0.50;0.23;;;11.90;99.90;;;;;;4955323;28;20215;-88
2022/09/17 06:27:36;;;;;;;1.20;0.87;;;12.10;99.90;;;;;;4955284;28;20223;-91
2022/09/17 06:30:03;;;;;;;1.00;0.67;;;12.40;99.90;;;;;;4955885;28;20527;-88
2022/09/17 06:32:29;;;;;;;6.23;1.70;;;12.80;99.90;;;;;;4987066;28;20209;-88
2022/09/17 06:34:56;;;;;;;0.10;0.10;;;13.60;99.90;;;;;;4938576;28;20213;-88
2022/09/17 06:37:29;;;;;;;1.13;0.73;;;13.70;99.90;;;;;;4971184;28;20287;-88
2022/09/17 06:39:56;;;;;;;0.30;0.23;;;13.00;99.90;;;;;;4971010;28;20291;-88
2022/09/17 06:42:22;;;;;;;1.03;0.43;;;12.60;99.90;;;;;;4970989;28;20185;-86
2022/09/17 06:44:47;;;;;;;0.83;0.83;;;12.50;99.90;;;;;;4955234;28;20224;-88
2022/09/17 06:47:13;;;;;;;0.10;0.10;;;13.00;99.90;;;;;;4954526;28;20587;-87
2022/09/17 06:49:39;;;;;;;0.17;0.17;;;13.70;99.90;;;;;;4954457;28;20232;-88
2022/09/17 06:52:05;;;;;;;0.50;0.50;;;13.10;99.90;;;;;;4954343;28;20220;-87
2022/09/17 06:54:30;;;;;;;0.67;0.67;;;13.90;99.90;;;;;;4954935;28;20542;-88
2022/09/17 06:56:56;;;;;;;0.43;0.20;;;14.80;99.90;;;;;;4954306;28;20332;-88
2022/09/17 06:59:23;;;;;;;1.70;0.50;;;14.60;99.90;;;;;;4972678;28;20227;-87
2022/09/17 07:01:49;;;;;;;1.70;0.30;;;13.20;99.90;;;;;;4990092;28;20256;-88
2022/09/17 07:04:16;;;;;;;1.30;0.43;;;12.40;99.90;;;;;;4958235;28;20217;-87
2022/09/17 07:06:42;;;;;;;6.53;1.30;;;12.10;99.90;;;;;;4957481;28;20228;-87
2022/09/17 07:09:08;;;;;;;0.10;0.10;;;11.90;99.90;;;;;;4974005;28;20271;-88
2022/09/17 07:11:34;;;;;;;0.10;0.10;;;11.80;99.90;;;;;;4958385;28;20251;-88
2022/09/17 07:14:00;;;;;;;0.10;0.10;;;11.90;99.90;;;;;;4957919;28;21817;-88
2022/09/17 07:16:25;;;;;;;2.50;1.20;;;12.10;99.90;;;;;;4956765;28;20259;-89
2022/09/17 07:18:51;;;;;;;1.00;0.63;;;11.50;99.90;;;;;;4957751;28;20347;-88
2022/09/17 07:21:17;;;;;;;0.33;0.30;;;11.30;99.90;;;;;;4958169;28;20200;-88
2022/09/17 07:23:44;;;;;;;0.47;0.13;;;11.30;99.90;;;;;;4956244;28;20209;-87
2022/09/17 07:26:14;;;;;;;0.27;0.27;;;11.40;99.90;;;;;;4956838;28;20371;-88
2022/09/17 07:28:42;;;;;;;0.33;0.33;;;11.40;99.90;;;;;;4957744;28;20223;-91
2022/09/17 07:31:09;;;;;;;0.40;0.40;;;11.40;99.90;;;;;;4957936;28;20224;-89
2022/09/17 07:33:36;;;;;;;2.37;0.43;;;11.50;99.90;;;;;;4973949;28;21060;-89
2022/09/17 07:36:04;;;;;;;0.17;0.17;;;11.60;99.90;;;;;;4957839;28;20279;-92
2022/09/17 07:38:31;;;;;;;1.23;0.40;;;12.50;99.90;;;;;;4973675;28;20215;-89
2022/09/17 07:40:59;;;;;;;1.47;0.30;;;13.70;99.90;;;;;;4957967;28;20227;-93
2022/09/17 07:43:26;;;;;;;0.83;0.73;;;14.60;99.90;;;;;;4950544;28;20213;-91
2022/09/17 07:45:53;;;;;;;0.10;0.10;;;15.00;99.90;;;;;;4990518;28;20205;-89
2022/09/17 07:48:19;;;;;;;8.67;0.40;;;15.40;99.90;;;;;;4957540;28;20279;-89
2022/09/17 07:50:46;;;;;;;0.43;0.30;;;15.10;99.90;;;;;;4972930;28;20212;-91
2022/09/17 07:53:12;;;;;;;0.27;0.20;;;14.60;99.90;;;;;;4957723;28;20237;-89
2022/09/17 07:55:38;;;;;;;0.20;0.20;;;14.70;99.90;;;;;;4941465;28;20349;-90
2022/09/17 07:58:04;;;;;;;1.57;0.27;;;15.30;99.90;;;;;;4957696;28;20265;-90
2022/09/17 08:00:29;;;;;;;1.80;0.60;;;14.50;99.90;;;;;;4957794;28;20200;-91
2022/09/17 08:02:55;;;;;;;0.90;0.90;;;13.20;99.90;;;;;;4958633;28;20189;-91
2022/09/17 08:05:23;;;;;;;0.80;0.40;;;12.70;99.90;;;;;;4973695;28;20213;-87
2022/09/17 08:07:53;;;;;;;0.10;0.10;;;12.60;99.90;;;;;;4988839;28;20287;-91
2022/09/17 08:10:21;;;;;;;4.27;0.37;;;12.50;99.90;;;;;;4990345;28;20588;-90
2022/09/17 08:12:48;;;;;;;1.20;0.27;;;12.70;99.90;;;;;;4958244;28;20586;-90
2022/09/17 08:15:15;;;;;;;0.53;0.53;;;12.80;99.90;;;;;;4957366;28;20193;-89
2022/09/17 08:17:47;;;;;;;3.10;0.73;;;13.70;99.90;;;;;;4957361;28;20555;-89
2022/09/17 08:20:15;;;;;;;10.70;0.60;;;14.80;99.90;;;;;;4956609;28;20212;-89
2022/09/17 08:22:41;;;;;;;0.63;0.30;;;15.20;99.90;;;;;;4972800;28;20220;-89
2022/09/17 08:25:08;;;;;;;0.13;0.13;;;15.70;99.90;;;;;;4956753;28;20295;-89
2022/09/17 08:27:37;;;;;;;0.10;0.10;;;15.60;99.90;;;;;;4956863;28;20299;-88
2022/09/17 08:30:05;;;;;;;0.20;0.20;;;15.40;99.90;;;;;;4974045;28;20180;-89
2022/09/17 08:32:30;;;;;;;0.30;0.30;;;15.80;99.90;;;;;;4956770;28;20204;-89
2022/09/17 08:34:56;;;;;;;0.90;0.90;;;15.50;99.90;;;;;;4956205;28;20716;-88
2022/09/17 08:37:22;;;;;;;2.27;0.40;;;14.10;99.90;;;;;;4956836;28;20227;-89
2022/09/17 08:39:48;;;;;;;0.73;0.73;;;13.40;99.90;;;;;;4956789;28;20225;-88
2022/09/17 08:42:24;;;;;;;0.87;0.20;;;13.10;99.90;;;;;;4941481;28;20193;-89
2022/09/17 08:44:52;;;;;;;3.77;0.53;;;12.60;99.90;;;;;;4972968;28;20255;-89
2022/09/17 08:47:32;;;;;;;1.00;0.90;;;12.30;99.90;;;;;;4940747;28;20889;-88
2022/09/17 08:50:02;;;;;;;2.23;0.90;;;12.20;99.90;;;;;;4972493;28;20254;-90
2022/09/17 08:53:03;;;;;;;1.47;1.20;;;12.30;99.90;;;;;;4988990;28;20221;-89
2022/09/17 08:55:41;;;;;;;2.47;0.97;;;12.40;99.90;;;;;;4973089;28;20212;-90
2022/09/17 08:58:39;;;;;;;1.67;0.80;;;12.40;99.90;;;;;;4988466;28;20307;-89
2022/09/17 09:01:22;;;;;;;0.47;0.30;;;12.60;99.90;;;;;;4972999;28;20299;-88
2022/09/17 09:04:15;;;;;;;4.90;0.50;;;12.70;99.90;;;;;;4973534;28;20295;-88
2022/09/17 09:06:48;;;;;;;0.20;0.20;;;12.70;99.90;;;;;;4972225;28;20532;-87
2022/09/17 09:09:17;;;;;;;0.10;0.10;;;12.60;99.90;;;;;;4971857;28;20239;-90
2022/09/17 09:11:45;;;;;;;1.30;0.20;;;12.30;99.90;;;;;;4972033;28;20231;-88
2022/09/17 09:14:14;;;;;;;0.10;0.10;;;12.30;99.90;;;;;;4988331;28;20248;-87
2022/09/17 09:16:44;;;;;;;5.13;0.83;;;12.30;99.90;;;;;;4971289;28;20759;-87
2022/09/17 09:19:21;;;;;;;0.33;0.33;;;12.60;99.90;;;;;;4973097;28;20217;-88
2022/09/17 09:22:02;;;;;;;0.50;0.50;;;12.80;99.90;;;;;;4970100;28;20223;-88
2022/09/17 09:24:35;;;;;;;1.40;1.03;;;12.70;99.90;;;;;;4987937;28;20199;-91
2022/09/17 09:27:17;;;;;;;1.03;0.93;;;13.60;99.90;;;;;;4971663;28;20208;-92
2022/09/17 09:30:05;;;;;;;2.33;1.37;;;14.60;99.90;;;;;;4988058;28;20216;-89
2022/09/17 09:32:49;;;;;;;0.90;0.83;;;12.80;99.90;;;;;;4987422;28;20573;-90
2022/09/17 09:35:21;;;;;;;1.17;0.57;;;12.30;99.90;;;;;;4971430;28;20227;-90
2022/09/17 09:38:02;;;;;;;0.10;0.10;;;12.30;99.90;;;;;;4971500;28;20212;-89
2022/09/17 09:40:47;;;;;;;0.10;0.10;;;12.50;99.90;;;;;;4971286;28;21333;-91
2022/09/17 09:43:20;;;;;;;0.03;0.03;;;12.70;99.90;;;;;;4971233;28;20290;-90
2022/09/17 09:46:00;;;;;;;1.50;0.57;;;13.00;99.90;;;;;;4971679;28;20213;-90
2022/09/17 09:48:41;;;;;;;4.00;0.50;;;13.20;99.90;;;;;;4987702;28;20215;-90
2022/09/17 09:51:13;;;;;;;0.47;0.47;;;13.50;99.90;;;;;;4987635;28;20243;-87
2022/09/17 09:53:55;;;;;;;0.30;0.30;;;14.20;99.90;;;;;;4970316;28;20216;-87
2022/09/17 09:56:33;;;;;;;0.40;0.20;;;14.80;99.90;;;;;;4970317;28;20323;-90
2022/09/17 09:58:58;;;;;;;0.10;0.10;;;14.60;99.90;;;;;;4969977;28;20219;-86
2022/09/17 10:01:27;;;;;;;6.93;1.03;;;13.30;99.90;;;;;;4953746;28;20208;-84
2022/09/17 10:03:57;;;;;;;0.00;0.00;;;13.00;99.90;;;;;;4986816;28;20228;-91
2022/09/17 10:06:24;;;;;;;5.07;1.17;;;13.10;99.90;;;;;;4956216;28;20303;-89
2022/09/17 10:08:56;;;;;;;1.10;1.00;;;13.90;99.90;;;;;;4955673;28;20236;-95
2022/09/17 10:11:24;;;;;;;2.23;0.73;;;14.90;99.90;;;;;;4970051;28;20227;-87
2022/09/17 10:13:50;;;;;;;0.10;0.10;;;15.20;99.90;;;;;;4971157;28;20208;-90
2022/09/17 10:16:18;;;;;;;0.50;0.40;;;15.50;99.90;;;;;;4938843;28;20217;-87
2022/09/17 10:18:45;;;;;;;4.90;1.50;;;15.80;99.90;;;;;;4970931;28;20220;-90
2022/09/17 10:21:21;;;;;;;0.43;0.43;;;16.00;99.90;;;;;;4972258;28;20177;-88
2022/09/17 10:23:48;;;;;;;0.40;0.10;;;16.10;99.90;;;;;;4971635;28;20260;-91
2022/09/17 10:26:28;;;;;;;0.10;0.10;;;16.40;99.90;;;;;;4971349;28;20690;-89
2022/09/17 10:29:01;;;;;;;5.20;0.83;;;16.00;99.90;;;;;;4988190;28;20216;-91
2022/09/17 10:31:27;;;;;;;14.33;1.60;;;15.30;99.90;;;;;;4971995;28;20300;-92
2022/09/17 10:34:01;;;;;;;4.93;1.07;;;15.20;99.90;;;;;;4957364;28;20298;-91
2022/09/17 10:36:45;;;;;;;5.50;1.20;;;14.70;99.90;;;;;;4975961;28;20189;-91
2022/09/17 10:39:33;;;;;;;6.60;0.90;;;14.20;99.90;;;;;;4975668;28;20629;-90
2022/09/17 10:42:04;;;;;;;6.07;1.03;;;13.50;99.90;;;;;;4974307;28;20212;-90
2022/09/17 10:44:33;;;;;;;0.63;0.30;;;13.10;99.90;;;;;;4991686;28;20240;-90
2022/09/17 10:47:05;;;;;;;6.77;0.97;;;13.40;99.90;;;;;;4975193;28;20539;-90
2022/09/17 10:49:42;;;;;;;0.43;0.43;;;14.20;99.90;;;;;;4974397;28;20328;-92
2022/09/17 10:52:24;;;;;;;5.83;1.57;;;14.90;99.90;;;;;;4975276;28;20212;-90
2022/09/17 10:54:58;;;;;;;6.30;0.67;;;15.60;99.90;;;;;;4974700;28;20216;-91
2022/09/17 10:58:06;;;;;;;2.00;0.40;;;16.10;99.90;;;;;;4975144;28;20227;-92
2022/09/17 11:00:42;;;;;;;1.53;1.10;;;16.20;99.90;;;;;;4990436;28;20200;-92
2022/09/17 11:03:40;;;;;;;2.83;1.43;;;14.90;99.90;;;;;;4975279;28;20670;-91
2022/09/17 11:06:27;;;;;;;3.87;2.57;;;14.10;99.90;;;;;;4975004;28;20220;-90
2022/09/17 11:09:04;;;;;;;0.63;0.63;;;13.90;99.90;;;;;;4975008;28;20260;-86
2022/09/17 11:12:07;;;;;;;0.77;0.43;;;13.60;99.90;;;;;;4974781;28;20595;-87
2022/09/17 11:14:57;;;;;;;0.50;0.50;;;13.50;99.90;;;;;;4990426;28;20719;-86
2022/09/17 11:17:50;;;;;;;2.30;1.13;;;13.60;99.90;;;;;;4973822;28;20258;-86
2022/09/17 11:20:48;;;;;;;0.33;0.33;;;13.50;99.90;;;;;;4974018;28;20232;-86
2022/09/17 11:23:37;;;;;;;0.10;0.10;;;13.70;99.90;;;;;;4973781;28;20594;-87
2022/09/17 11:26:07;;;;;;;0.20;0.20;;;14.20;99.90;;;;;;4988782;28;20231;-86
2022/09/17 11:28:47;;;;;;;0.33;0.30;;;14.50;99.90;;;;;;4973304;28;20233;-86
2022/09/17 11:31:33;;;;;;;0.20;0.20;;;14.00;99.90;;;;;;4973155;28;20219;-86
2022/09/17 11:34:22;;;;;;;11.03;0.80;;;13.40;99.90;;;;;;4973549;28;20641;-88
2022/09/17 11:36:54;;;;;;;1.70;0.20;;;13.70;99.90;;;;;;4973704;28;20211;-89
2022/09/17 11:39:36;;;;;;;0.07;0.07;;;14.70;99.90;;;;;;4990370;28;20195;-89
2022/09/17 11:42:09;;;;;;;0.40;0.40;;;15.10;99.90;;;;;;4990720;28;20191;-89
2022/09/17 11:44:52;;;;;;;0.13;0.13;;;15.30;99.90;;;;;;4988827;28;20212;-88
2022/09/17 11:47:28;;;;;;;1.07;0.60;;;15.50;99.90;;;;;;4972874;28;20265;-88
2022/09/17 11:50:04;;;;;;;4.67;0.77;;;15.60;99.90;;;;;;4973320;28;20311;-90
2022/09/17 11:52:42;;;;;;;1.10;0.50;;;16.00;99.90;;;;;;4973857;28;20248;-88
2022/09/17 11:55:45;;;;;;;5.60;1.63;;;15.50;99.90;;;;;;4973385;28;20224;-90
2022/09/17 11:58:31;;;;;;;1.00;0.90;;;15.70;99.90;;;;;;4973609;28;20251;-90
2022/09/17 12:01:28;;;;;;;1.43;0.40;;;15.90;99.90;;;;;;4989594;28;20212;-89
2022/09/17 12:04:09;;;;;;;0.10;0.10;;;16.00;99.90;;;;;;4972850;28;20216;-87
2022/09/17 12:06:42;;;;;;;0.40;0.40;;;16.40;99.90;;;;;;4972665;28;20220;-88
2022/09/17 12:09:15;;;;;;;0.70;0.23;;;16.50;99.90;;;;;;4973570;28;20243;-87
2022/09/17 12:12:16;;;;;;;0.97;0.23;;;16.40;99.90;;;;;;4972484;28;20215;-89
2022/09/17 12:14:51;;;;;;;0.30;0.30;;;16.60;99.90;;;;;;4972985;28;20219;-88
2022/09/17 12:17:46;;;;;;;1.23;0.53;;;16.10;99.90;;;;;;4973286;28;20224;-89
2022/09/17 12:20:31;;;;;;;2.03;0.53;;;15.10;99.90;;;;;;4988659;28;20231;-88
2022/09/17 12:23:01;;;;;;;0.23;0.23;;;14.70;99.90;;;;;;4957164;28;20311;-88
2022/09/17 12:25:35;;;;;;;0.30;0.30;;;14.80;99.90;;;;;;4972156;28;20224;-89
2022/09/17 12:28:24;;;;;;;1.23;0.47;;;14.70;99.90;;;;;;4973048;28;20596;-90
2022/09/17 12:31:00;;;;;;;1.83;0.40;;;14.90;99.90;;;;;;4972477;28;20304;-89
2022/09/17 12:33:52;;;;;;;0.60;0.60;;;15.00;99.90;;;;;;4973018;28;20231;-91
2022/09/17 12:36:18;;;;;;;0.50;0.43;;;15.50;99.90;;;;;;4972510;28;20235;-92
2022/09/17 12:39:11;;;;;;;2.57;0.40;;;15.40;99.90;;;;;;4972851;28;21043;-93
2022/09/17 12:41:55;;;;;;;4.37;0.77;;;15.10;99.90;;;;;;4972524;28;20224;-92
2022/09/17 12:45:03;;;;;;;0.40;0.40;;;14.80;99.90;;;;;;4972805;28;20256;-90
2022/09/17 12:48:00;;;;;;;0.40;0.40;;;15.00;99.90;;;;;;4973024;28;20267;-91
2022/09/17 12:50:58;;;;;;;0.40;0.40;;;15.10;99.90;;;;;;4988190;28;20694;-90
2022/09/17 12:53:34;;;;;;;1.33;0.57;;;15.10;99.90;;;;;;4945766;28;20307;-91
2022/09/17 12:56:18;;;;;;;0.90;0.30;;;15.70;99.90;;;;;;4987901;28;20677;-92
2022/09/17 12:59:08;;;;;;;0.40;0.40;;;15.90;99.90;;;;;;4973223;28;20237;-91
2022/09/17 13:02:13;;;;;;;1.70;0.23;;;15.60;99.90;;;;;;4988737;28;20215;-92
2022/09/17 13:04:45;;;;;;;0.10;0.10;;;13.80;99.90;;;;;;4971264;28;20266;-90
2022/09/17 13:07:11;;;;;;;0.77;0.63;;;12.80;99.90;;;;;;4972003;28;20221;-91
2022/09/17 13:10:13;;;;;;;0.67;0.40;;;12.40;99.90;;;;;;4972174;28;20498;-92
2022/09/17 13:13:03;;;;;;;1.30;0.30;;;12.40;99.90;;;;;;4972629;28;20725;-89
2022/09/17 13:15:45;;;;;;;0.40;0.40;;;13.20;99.90;;;;;;4971472;28;20197;-88